Terminal Aerodrome Forecast
Issued by NWS Billings, MT

Home | Current Version | Previous Version | Text Only | Print | Product List | Glossary Off
Versions: 1 2 3 4 5 6 7 8 9 10 11 12 13 14 15 16 17 18 19 20 21 22 23 24

000
FTUS45 KBYZ 180522
TAFMLS
TAF
KMLS 180522Z 1806/1906 13008KT P6SM VCSH BKN020 OVC030
     FM181300 VRB05KT P6SM SCT003 BKN020
     FM181800 24010KT P6SM SCT003 OVC040
     FM190300 24006KT P6SM OVC060 WS015/28030KT=

USA.gov is the U.S. government's official web portal to all federal, state and local government web resources and services.